sensor_id;sensor_type;location;lat;lon;timestamp;pressure;altitude;pressure_sealevel;temperature;humidity
49044;BME280;34860;48.066;14.124;2023-06-10T00:01:14;96250.94;;;18.23;54.29
49044;BME280;34860;48.066;14.124;2023-06-10T00:04:02;96245.53;;;18.19;54.23
49044;BME280;34860;48.066;14.124;2023-06-10T00:06:55;96241.94;;;18.19;54.14
49044;BME280;34860;48.066;14.124;2023-06-10T00:09:46;96245.00;;;18.15;54.26
49044;BME280;34860;48.066;14.124;2023-06-10T00:12:41;96242.66;;;18.13;54.27
49044;BME280;34860;48.066;14.124;2023-06-10T00:15:32;96237.28;;;18.10;54.23
49044;BME280;34860;48.066;14.124;2023-06-10T00:18:21;96242.91;;;18.10;54.25
49044;BME280;34860;48.066;14.124;2023-06-10T00:21:13;96234.69;;;18.06;54.26
49044;BME280;34860;48.066;14.124;2023-06-10T00:24:06;96240.81;;;18.05;54.31
49044;BME280;34860;48.066;14.124;2023-06-10T00:27:00;96246.94;;;18.03;54.30
49044;BME280;34860;48.066;14.124;2023-06-10T00:29:50;96241.03;;;18.01;54.25
49044;BME280;34860;48.066;14.124;2023-06-10T00:32:38;96245.88;;;18.01;54.31
49044;BME280;34860;48.066;14.124;2023-06-10T00:35:26;96248.44;;;17.99;54.36
49044;BME280;34860;48.066;14.124;2023-06-10T00:38:20;96254.06;;;17.99;54.38
49044;BME280;34860;48.066;14.124;2023-06-10T00:41:10;96248.13;;;17.96;54.37
49044;BME280;34860;48.066;14.124;2023-06-10T00:44:04;96240.22;;;17.95;54.45
49044;BME280;34860;48.066;14.124;2023-06-10T00:46:53;96236.34;;;17.92;54.44
49044;BME280;34860;48.066;14.124;2023-06-10T00:49:42;96226.88;;;17.90;54.49
49044;BME280;34860;48.066;14.124;2023-06-10T00:52:31;96224.56;;;17.88;54.64
49044;BME280;34860;48.066;14.124;2023-06-10T00:55:25;96227.84;;;17.87;54.64
49044;BME280;34860;48.066;14.124;2023-06-10T00:58:20;96228.81;;;17.84;54.65
49044;BME280;34860;48.066;14.124;2023-06-10T01:01:10;96234.69;;;17.80;54.57
49044;BME280;34860;48.066;14.124;2023-06-10T01:04:03;96241.59;;;17.79;54.47
49044;BME280;34860;48.066;14.124;2023-06-10T01:07:00;96245.38;;;17.76;54.66
49044;BME280;34860;48.066;14.124;2023-06-10T01:09:55;96235.88;;;17.73;54.54
49044;BME280;34860;48.066;14.124;2023-06-10T01:12:52;96234.06;;;17.70;54.61
49044;BME280;34860;48.066;14.124;2023-06-10T01:15:47;96233.00;;;17.68;54.72
49044;BME280;34860;48.066;14.124;2023-06-10T01:18:40;96226.34;;;17.65;54.60
49044;BME280;34860;48.066;14.124;2023-06-10T01:21:33;96229.66;;;17.64;54.65
49044;BME280;34860;48.066;14.124;2023-06-10T01:24:26;96235.78;;;17.62;54.63
49044;BME280;34860;48.066;14.124;2023-06-10T01:27:15;96241.41;;;17.62;54.77
49044;BME280;34860;48.066;14.124;2023-06-10T01:30:12;96244.44;;;17.58;54.72
49044;BME280;34860;48.066;14.124;2023-06-10T01:33:07;96234.44;;;17.57;54.73
49044;BME280;34860;48.066;14.124;2023-06-10T01:36:01;96237.25;;;17.57;54.83
49044;BME280;34860;48.066;14.124;2023-06-10T01:38:56;96233.38;;;17.55;54.96
49044;BME280;34860;48.066;14.124;2023-06-10T01:41:47;96235.16;;;17.52;54.91
49044;BME280;34860;48.066;14.124;2023-06-10T01:44:39;96241.28;;;17.51;54.92
49044;BME280;34860;48.066;14.124;2023-06-10T01:47:28;96241.78;;;17.49;54.97
49044;BME280;34860;48.066;14.124;2023-06-10T01:50:18;96243.53;;;17.47;55.00
49044;BME280;34860;48.066;14.124;2023-06-10T01:53:09;96239.69;;;17.44;55.16
49044;BME280;34860;48.066;14.124;2023-06-10T01:55:58;96238.63;;;17.41;55.12
49044;BME280;34860;48.066;14.124;2023-06-10T01:58:50;96236.81;;;17.38;55.08
49044;BME280;34860;48.066;14.124;2023-06-10T02:01:45;96245.22;;;17.38;55.15
49044;BME280;34860;48.066;14.124;2023-06-10T02:04:33;96245.44;;;17.35;55.21
49044;BME280;34860;48.066;14.124;2023-06-10T02:07:25;96238.78;;;17.32;55.27
49044;BME280;34860;48.066;14.124;2023-06-10T02:10:14;96243.34;;;17.30;55.26
49044;BME280;34860;48.066;14.124;2023-06-10T02:13:04;96246.16;;;17.30;55.26
49044;BME280;34860;48.066;14.124;2023-06-10T02:15:53;96251.22;;;17.25;55.27
49044;BME280;34860;48.066;14.124;2023-06-10T02:18:48;96251.22;;;17.25;55.34
49044;BME280;34860;48.066;14.124;2023-06-10T02:21:38;96252.94;;;17.23;55.20
49044;BME280;34860;48.066;14.124;2023-06-10T02:24:28;96253.94;;;17.20;55.36
49044;BME280;34860;48.066;14.124;2023-06-10T02:27:18;96245.25;;;17.18;55.47
49044;BME280;34860;48.066;14.124;2023-06-10T02:30:12;96256.97;;;17.16;55.55
49044;BME280;34860;48.066;14.124;2023-06-10T02:33:02;96261.06;;;17.15;55.45
49044;BME280;34860;48.066;14.124;2023-06-10T02:35:57;96256.41;;;17.12;55.33
49044;BME280;34860;48.066;14.124;2023-06-10T02:38:46;96249.25;;;17.11;55.31
49044;BME280;34860;48.066;14.124;2023-06-10T02:41:37;96250.50;;;17.10;55.55
49044;BME280;34860;48.066;14.124;2023-06-10T02:44:29;96254.59;;;17.09;55.64
49044;BME280;34860;48.066;14.124;2023-06-10T02:47:23;96251.00;;;17.09;55.50
49044;BME280;34860;48.066;14.124;2023-06-10T02:50:12;96252.28;;;17.08;55.46
49044;BME280;34860;48.066;14.124;2023-06-10T02:53:16;96257.59;;;17.05;55.54
49044;BME280;34860;48.066;14.124;2023-06-10T02:56:09;96264.47;;;17.04;55.56
49044;BME280;34860;48.066;14.124;2023-06-10T02:58:58;96260.59;;;17.02;55.59
49044;BME280;34860;48.066;14.124;2023-06-10T03:01:49;96271.34;;;17.03;55.46
49044;BME280;34860;48.066;14.124;2023-06-10T03:04:42;96269.53;;;17.00;55.68
49044;BME280;34860;48.066;14.124;2023-06-10T03:07:36;96271.06;;;17.01;55.72
49044;BME280;34860;48.066;14.124;2023-06-10T03:10:25;96268.47;;;16.98;55.69
49044;BME280;34860;48.066;14.124;2023-06-10T03:13:14;96270.50;;;16.97;55.74
49044;BME280;34860;48.066;14.124;2023-06-10T03:16:05;96273.03;;;16.95;55.62
49044;BME280;34860;48.066;14.124;2023-06-10T03:18:58;96270.22;;;16.95;55.72
49044;BME280;34860;48.066;14.124;2023-06-10T03:21:49;96279.91;;;16.94;55.74
49044;BME280;34860;48.066;14.124;2023-06-10T03:24:41;96281.66;;;16.92;55.66
49044;BME280;34860;48.066;14.124;2023-06-10T03:27:40;96279.34;;;16.90;55.79
49044;BME280;34860;48.066;14.124;2023-06-10T03:30:34;96287.47;;;16.88;55.99
49044;BME280;34860;48.066;14.124;2023-06-10T03:33:22;96285.44;;;16.88;55.87
49044;BME280;34860;48.066;14.124;2023-06-10T03:36:17;96280.00;;;16.85;55.79
49044;BME280;34860;48.066;14.124;2023-06-10T03:39:14;96289.69;;;16.84;55.85
49044;BME280;34860;48.066;14.124;2023-06-10T03:42:03;96287.38;;;16.82;55.87
49044;BME280;34860;48.066;14.124;2023-06-10T03:44:55;96298.59;;;16.82;55.93
49044;BME280;34860;48.066;14.124;2023-06-10T03:47:44;96297.53;;;16.80;55.81
49044;BME280;34860;48.066;14.124;2023-06-10T03:50:41;96295.22;;;16.78;55.94
49044;BME280;34860;48.066;14.124;2023-06-10T03:53:31;96300.06;;;16.78;55.99
49044;BME280;34860;48.066;14.124;2023-06-10T03:56:26;96307.72;;;16.77;56.05
49044;BME280;34860;48.066;14.124;2023-06-10T03:59:18;96310.53;;;16.77;55.96
49044;BME280;34860;48.066;14.124;2023-06-10T04:02:10;96306.91;;;16.77;56.13
49044;BME280;34860;48.066;14.124;2023-06-10T04:04:58;96310.78;;;16.79;56.12
49044;BME280;34860;48.066;14.124;2023-06-10T04:07:49;96312.84;;;16.79;56.01
49044;BME280;34860;48.066;14.124;2023-06-10T04:10:41;96309.44;;;16.75;56.07
49044;BME280;34860;48.066;14.124;2023-06-10T04:13:32;96306.16;;;16.76;56.05
49044;BME280;34860;48.066;14.124;2023-06-10T04:16:27;96303.34;;;16.76;56.07
49044;BME280;34860;48.066;14.124;2023-06-10T04:19:15;96311.78;;;16.76;56.29
49044;BME280;34860;48.066;14.124;2023-06-10T04:22:04;96314.56;;;16.76;56.11
49044;BME280;34860;48.066;14.124;2023-06-10T04:24:56;96313.03;;;16.75;55.97
49044;BME280;34860;48.066;14.124;2023-06-10T04:27:45;96311.28;;;16.78;56.18
49044;BME280;34860;48.066;14.124;2023-06-10T04:30:40;96311.00;;;16.76;56.09
49044;BME280;34860;48.066;14.124;2023-06-10T04:33:33;96308.69;;;16.74;56.24
49044;BME280;34860;48.066;14.124;2023-06-10T04:36:23;96310.22;;;16.75;56.23
49044;BME280;34860;48.066;14.124;2023-06-10T04:39:11;96314.28;;;16.74;56.35
49044;BME280;34860;48.066;14.124;2023-06-10T04:42:01;96309.44;;;16.75;56.22
49044;BME280;34860;48.066;14.124;2023-06-10T04:44:54;96308.97;;;16.76;56.30
49044;BME280;34860;48.066;14.124;2023-06-10T04:47:43;96318.13;;;16.77;56.40
49044;BME280;34860;48.066;14.124;2023-06-10T04:50:34;96312.25;;;16.75;56.37
49044;BME280;34860;48.066;14.124;2023-06-10T04:53:24;96309.44;;;16.75;56.35
49044;BME280;34860;48.066;14.124;2023-06-10T04:56:13;96314.56;;;16.76;56.44
49044;BME280;34860;48.066;14.124;2023-06-10T04:59:04;96320.19;;;16.76;56.28
49044;BME280;34860;48.066;14.124;2023-06-10T05:01:54;96315.34;;;16.77;56.42
49044;BME280;34860;48.066;14.124;2023-06-10T05:04:47;96315.34;;;16.77;56.39
49044;BME280;34860;48.066;14.124;2023-06-10T05:07:36;96311.28;;;16.78;56.34
49044;BME280;34860;48.066;14.124;2023-06-10T05:10:24;96309.22;;;16.78;56.43
49044;BME280;34860;48.066;14.124;2023-06-10T05:13:16;96318.72;;;16.81;56.37
49044;BME280;34860;48.066;14.124;2023-06-10T05:16:08;96315.91;;;16.81;56.34
49044;BME280;34860;48.066;14.124;2023-06-10T05:18:56;96319.78;;;16.83;56.38
49044;BME280;34860;48.066;14.124;2023-06-10T05:21:50;96322.13;;;16.85;56.44
49044;BME280;34860;48.066;14.124;2023-06-10T05:24:43;96320.09;;;16.85;56.33
49044;BME280;34860;48.066;14.124;2023-06-10T05:27:32;96317.56;;;16.87;56.40
49044;BME280;34860;48.066;14.124;2023-06-10T05:30:26;96318.63;;;16.90;56.50
49044;BME280;34860;48.066;14.124;2023-06-10T05:33:18;96316.59;;;16.91;56.43
49044;BME280;34860;48.066;14.124;2023-06-10T05:36:12;96329.66;;;16.94;56.41
49044;BME280;34860;48.066;14.124;2023-06-10T05:39:02;96317.94;;;16.95;56.43
49044;BME280;34860;48.066;14.124;2023-06-10T05:41:50;96319.78;;;16.98;56.40
49044;BME280;34860;48.066;14.124;2023-06-10T05:44:42;96314.44;;;17.00;56.21
49044;BME280;34860;48.066;14.124;2023-06-10T05:47:32;96321.13;;;17.03;56.45
49044;BME280;34860;48.066;14.124;2023-06-10T05:50:21;96317.34;;;17.06;56.40
49044;BME280;34860;48.066;14.124;2023-06-10T05:53:10;96321.97;;;17.09;56.37
49044;BME280;34860;48.066;14.124;2023-06-10T05:56:04;96314.88;;;17.14;56.25
49044;BME280;34860;48.066;14.124;2023-06-10T05:58:52;96313.44;;;17.18;56.35
49044;BME280;34860;48.066;14.124;2023-06-10T06:01:49;96319.88;;;17.24;56.32
49044;BME280;34860;48.066;14.124;2023-06-10T06:04:39;96317.13;;;17.30;56.31
49044;BME280;34860;48.066;14.124;2023-06-10T06:07:33;96312.84;;;17.35;56.15
49044;BME280;34860;48.066;14.124;2023-06-10T06:10:21;96322.91;;;17.41;56.29
49044;BME280;34860;48.066;14.124;2023-06-10T06:13:11;96309.19;;;17.49;56.22
49044;BME280;34860;48.066;14.124;2023-06-10T06:16:04;96314.13;;;17.54;56.12
49044;BME280;34860;48.066;14.124;2023-06-10T06:18:53;96320.09;;;17.62;56.19
49044;BME280;34860;48.066;14.124;2023-06-10T06:21:46;96321.69;;;17.69;56.19
49044;BME280;34860;48.066;14.124;2023-06-10T06:24:34;96313.59;;;17.76;55.93
49044;BME280;34860;48.066;14.124;2023-06-10T06:27:22;96313.16;;;17.84;56.15
49044;BME280;34860;48.066;14.124;2023-06-10T06:30:17;96307.13;;;17.91;56.08
49044;BME280;34860;48.066;14.124;2023-06-10T06:33:05;96317.44;;;18.00;55.91
49044;BME280;34860;48.066;14.124;2023-06-10T06:35:53;96323.63;;;18.04;56.04
49044;BME280;34860;48.066;14.124;2023-06-10T06:38:42;96322.41;;;18.10;56.03
49044;BME280;34860;48.066;14.124;2023-06-10T06:41:38;96320.44;;;18.17;55.93
49044;BME280;34860;48.066;14.124;2023-06-10T06:44:26;96318.44;;;18.23;56.12
49044;BME280;34860;48.066;14.124;2023-06-10T06:47:15;96324.09;;;18.28;56.03
49044;BME280;34860;48.066;14.124;2023-06-10T06:50:08;96327.25;;;18.36;55.89
49044;BME280;34860;48.066;14.124;2023-06-10T06:52:57;96326.81;;;18.43;55.97
49044;BME280;34860;48.066;14.124;2023-06-10T06:55:51;96329.94;;;18.51;55.83
49044;BME280;34860;48.066;14.124;2023-06-10T06:58:39;96331.53;;;18.58;55.88
49044;BME280;34860;48.066;14.124;2023-06-10T07:01:33;96336.69;;;18.65;56.01
49044;BME280;34860;48.066;14.124;2023-06-10T07:04:22;96340.38;;;18.77;55.94
49044;BME280;34860;48.066;14.124;2023-06-10T07:07:13;96341.50;;;18.85;55.92
49044;BME280;34860;48.066;14.124;2023-06-10T07:10:01;96341.31;;;18.94;55.85
49044;BME280;34860;48.066;14.124;2023-06-10T07:12:53;96342.63;;;19.04;55.68
49044;BME280;34860;48.066;14.124;2023-06-10T07:15:41;96348.84;;;19.14;55.74
49044;BME280;34860;48.066;14.124;2023-06-10T07:18:29;96340.97;;;19.24;55.68
49044;BME280;34860;48.066;14.124;2023-06-10T07:21:18;96341.78;;;19.30;55.58
49044;BME280;34860;48.066;14.124;2023-06-10T07:24:11;96343.63;;;19.39;55.65
49044;BME280;34860;48.066;14.124;2023-06-10T07:27:09;96345.19;;;19.46;55.61
49044;BME280;34860;48.066;14.124;2023-06-10T07:30:01;96348.81;;;19.52;55.59
49044;BME280;34860;48.066;14.124;2023-06-10T07:32:50;96348.81;;;19.57;55.49
49044;BME280;34860;48.066;14.124;2023-06-10T07:35:39;96346.53;;;19.67;55.72
49044;BME280;34860;48.066;14.124;2023-06-10T07:38:33;96348.63;;;19.72;55.66
49044;BME280;34860;48.066;14.124;2023-06-10T07:41:22;96346.13;;;19.80;55.43
49044;BME280;34860;48.066;14.124;2023-06-10T07:44:13;96350.00;;;19.88;55.55
49044;BME280;34860;48.066;14.124;2023-06-10T07:47:01;96361.28;;;19.94;55.42
49044;BME280;34860;48.066;14.124;2023-06-10T07:49:50;96362.84;;;20.01;55.48
49044;BME280;34860;48.066;14.124;2023-06-10T07:52:44;96360.81;;;20.07;55.44
49044;BME280;34860;48.066;14.124;2023-06-10T07:55:36;96361.84;;;20.15;55.57
49044;BME280;34860;48.066;14.124;2023-06-10T07:58:24;96360.63;;;20.22;55.46
49044;BME280;34860;48.066;14.124;2023-06-10T08:01:12;96370.88;;;20.30;55.46
49044;BME280;34860;48.066;14.124;2023-06-10T08:04:00;96365.75;;;20.35;55.32
49044;BME280;34860;48.066;14.124;2023-06-10T08:06:48;96366.81;;;20.43;55.33
49044;BME280;34860;48.066;14.124;2023-06-10T08:09:36;96368.59;;;20.46;55.40
49044;BME280;34860;48.066;14.124;2023-06-10T08:12:25;96368.59;;;20.51;55.46
49044;BME280;34860;48.066;14.124;2023-06-10T08:15:13;96374.25;;;20.57;55.33
49044;BME280;34860;48.066;14.124;2023-06-10T08:18:03;96367.06;;;20.62;55.40
49044;BME280;34860;48.066;14.124;2023-06-10T08:23:41;96369.94;;;20.73;55.30
49044;BME280;34860;48.066;14.124;2023-06-10T08:26:30;96363.00;;;20.80;55.36
49044;BME280;34860;48.066;14.124;2023-06-10T08:29:22;96362.50;;;20.87;55.25
49044;BME280;34860;48.066;14.124;2023-06-10T08:32:11;96373.00;;;20.98;55.21
49044;BME280;34860;48.066;14.124;2023-06-10T08:35:00;96367.34;;;21.03;55.09
49044;BME280;34860;48.066;14.124;2023-06-10T08:37:48;96366.31;;;21.12;55.11
49044;BME280;34860;48.066;14.124;2023-06-10T08:40:42;96369.38;;;21.20;55.09
49044;BME280;34860;48.066;14.124;2023-06-10T08:43:33;96374.75;;;21.29;54.98
49044;BME280;34860;48.066;14.124;2023-06-10T08:46:24;96366.00;;;21.38;54.84
49044;BME280;34860;48.066;14.124;2023-06-10T08:49:17;96370.09;;;21.49;54.91
49044;BME280;34860;48.066;14.124;2023-06-10T08:52:13;96376.53;;;21.61;54.81
49044;BME280;34860;48.066;14.124;2023-06-10T08:55:04;96369.28;;;21.71;54.76
49044;BME280;34860;48.066;14.124;2023-06-10T08:57:56;96371.06;;;21.80;54.77
49044;BME280;34860;48.066;14.124;2023-06-10T09:00:46;96377.19;;;21.89;54.71
49044;BME280;34860;48.066;14.124;2023-06-10T09:03:42;96370.97;;;21.97;54.50
49044;BME280;34860;48.066;14.124;2023-06-10T09:06:35;96375.31;;;22.03;54.47
49044;BME280;34860;48.066;14.124;2023-06-10T09:09:35;96376.03;;;22.09;54.43
49044;BME280;34860;48.066;14.124;2023-06-10T09:12:23;96368.81;;;22.14;54.40
49044;BME280;34860;48.066;14.124;2023-06-10T09:15:17;96369.31;;;22.18;54.47
49044;BME280;34860;48.066;14.124;2023-06-10T09:18:08;96365.69;;;22.23;54.44
49044;BME280;34860;48.066;14.124;2023-06-10T09:21:00;96369.03;;;22.27;54.53
49044;BME280;34860;48.066;14.124;2023-06-10T09:23:52;96371.81;;;22.33;54.48
49044;BME280;34860;48.066;14.124;2023-06-10T09:26:42;96368.44;;;22.40;54.52
49044;BME280;34860;48.066;14.124;2023-06-10T09:29:47;96370.72;;;22.47;54.56
49044;BME280;34860;48.066;14.124;2023-06-10T09:32:42;96366.53;;;22.54;54.44
49044;BME280;34860;48.066;14.124;2023-06-10T09:35:33;96360.09;;;22.59;54.53
49044;BME280;34860;48.066;14.124;2023-06-10T09:38:29;96362.56;;;22.68;54.39
49044;BME280;34860;48.066;14.124;2023-06-10T09:41:31;96361.78;;;22.74;54.44
49044;BME280;34860;48.066;14.124;2023-06-10T09:44:22;96360.66;;;22.82;54.19
49044;BME280;34860;48.066;14.124;2023-06-10T09:47:19;96361.38;;;22.89;54.44
49044;BME280;34860;48.066;14.124;2023-06-10T09:50:09;96357.97;;;22.96;54.29
49044;BME280;34860;48.066;14.124;2023-06-10T09:52:57;96368.22;;;23.04;54.15
49044;BME280;34860;48.066;14.124;2023-06-10T09:55:46;96368.44;;;23.12;54.25
49044;BME280;34860;48.066;14.124;2023-06-10T09:58:38;96367.06;;;23.19;54.19
49044;BME280;34860;48.066;14.124;2023-06-10T10:01:34;96366.19;;;23.30;54.23
49044;BME280;34860;48.066;14.124;2023-06-10T10:04:25;96360.72;;;23.37;53.99
49044;BME280;34860;48.066;14.124;2023-06-10T10:07:17;96366.78;;;23.47;54.18
49044;BME280;34860;48.066;14.124;2023-06-10T10:10:12;96359.22;;;23.55;53.92
49044;BME280;34860;48.066;14.124;2023-06-10T10:13:02;96361.44;;;23.63;53.98
49044;BME280;34860;48.066;14.124;2023-06-10T10:15:54;96360.34;;;23.71;53.79
49044;BME280;34860;48.066;14.124;2023-06-10T10:18:51;96357.66;;;23.79;53.74
49044;BME280;34860;48.066;14.124;2023-06-10T10:21:44;96358.63;;;23.87;53.65
49044;BME280;34860;48.066;14.124;2023-06-10T10:24:41;96351.03;;;23.96;53.89
49044;BME280;34860;48.066;14.124;2023-06-10T10:27:44;96361.47;;;24.06;53.86
49044;BME280;34860;48.066;14.124;2023-06-10T10:30:38;96355.16;;;24.14;53.56
49044;BME280;34860;48.066;14.124;2023-06-10T10:33:33;96352.72;;;24.23;53.52
49044;BME280;34860;48.066;14.124;2023-06-10T10:36:23;96344.66;;;24.27;53.54
49044;BME280;34860;48.066;14.124;2023-06-10T10:39:14;96342.50;;;24.34;53.54
49044;BME280;34860;48.066;14.124;2023-06-10T10:42:08;96343.19;;;24.40;53.35
49044;BME280;34860;48.066;14.124;2023-06-10T10:45:03;96339.50;;;24.45;53.51
49044;BME280;34860;48.066;14.124;2023-06-10T10:47:54;96345.63;;;24.49;53.33
49044;BME280;34860;48.066;14.124;2023-06-10T10:50:56;96344.25;;;24.56;53.35
49044;BME280;34860;48.066;14.124;2023-06-10T10:54:09;96339.28;;;24.62;53.20
49044;BME280;34860;48.066;14.124;2023-06-10T10:57:12;96336.56;;;24.70;53.22
49044;BME280;34860;48.066;14.124;2023-06-10T11:00:02;96334.59;;;24.78;53.47
49044;BME280;34860;48.066;14.124;2023-06-10T11:02:59;96338.13;;;24.84;53.26
49044;BME280;34860;48.066;14.124;2023-06-10T11:05:49;96328.22;;;24.91;53.01
49044;BME280;34860;48.066;14.124;2023-06-10T11:08:46;96333.78;;;24.96;52.88
49044;BME280;34860;48.066;14.124;2023-06-10T11:11:49;96334.47;;;25.02;53.24
49044;BME280;34860;48.066;14.124;2023-06-10T11:14:54;96329.44;;;25.09;52.97
49044;BME280;34860;48.066;14.124;2023-06-10T11:18:20;96330.34;;;25.17;52.93
49044;BME280;34860;48.066;14.124;2023-06-10T11:21:16;96328.59;;;25.27;53.10
49044;BME280;34860;48.066;14.124;2023-06-10T11:24:12;96324.78;;;25.38;52.85
49044;BME280;34860;48.066;14.124;2023-06-10T11:27:18;96330.50;;;25.51;52.81
49044;BME280;34860;48.066;14.124;2023-06-10T11:30:18;96320.31;;;25.69;52.30
49044;BME280;34860;48.066;14.124;2023-06-10T11:33:16;96324.47;;;25.82;52.56
49044;BME280;34860;48.066;14.124;2023-06-10T11:36:11;96320.28;;;25.96;52.16
49044;BME280;34860;48.066;14.124;2023-06-10T11:39:05;96319.16;;;26.13;52.43
49044;BME280;34860;48.066;14.124;2023-06-10T11:41:58;96317.81;;;26.27;52.16
49044;BME280;34860;48.066;14.124;2023-06-10T11:44:50;96318.19;;;26.44;51.82
49044;BME280;34860;48.066;14.124;2023-06-10T11:47:39;96309.25;;;26.61;51.69
49044;BME280;34860;48.066;14.124;2023-06-10T11:50:34;96306.78;;;26.79;51.74
49044;BME280;34860;48.066;14.124;2023-06-10T11:53:22;96311.47;;;26.97;51.97
49044;BME280;34860;48.066;14.124;2023-06-10T11:56:10;96320.38;;;27.15;51.40
49044;BME280;34860;48.066;14.124;2023-06-10T11:58:59;96314.44;;;27.34;51.23
49044;BME280;34860;48.066;14.124;2023-06-10T12:01:58;96319.91;;;27.53;51.14
49044;BME280;34860;48.066;14.124;2023-06-10T12:04:46;96326.66;;;27.71;51.01
49044;BME280;34860;48.066;14.124;2023-06-10T12:07:38;96325.75;;;27.84;51.02
49044;BME280;34860;48.066;14.124;2023-06-10T12:10:39;96328.84;;;27.94;51.19
49044;BME280;34860;48.066;14.124;2023-06-10T12:13:28;96324.34;;;27.98;51.11
49044;BME280;34860;48.066;14.124;2023-06-10T12:16:17;96318.47;;;28.04;50.79
49044;BME280;34860;48.066;14.124;2023-06-10T12:19:06;96325.16;;;28.14;50.56
49044;BME280;34860;48.066;14.124;2023-06-10T12:22:00;96324.81;;;28.18;50.88
49044;BME280;34860;48.066;14.124;2023-06-10T12:24:59;96324.03;;;28.17;50.62
49044;BME280;34860;48.066;14.124;2023-06-10T12:27:50;96314.84;;;28.11;50.72
49044;BME280;34860;48.066;14.124;2023-06-10T12:30:45;96312.56;;;28.02;50.71
49044;BME280;34860;48.066;14.124;2023-06-10T12:33:33;96321.63;;;27.93;51.14
49044;BME280;34860;48.066;14.124;2023-06-10T12:36:23;96314.16;;;27.82;51.16
49044;BME280;34860;48.066;14.124;2023-06-10T12:39:13;96316.41;;;27.76;51.43
49044;BME280;34860;48.066;14.124;2023-06-10T12:42:08;96310.88;;;27.70;51.13
49044;BME280;34860;48.066;14.124;2023-06-10T12:45:02;96309.47;;;27.63;51.24
49044;BME280;34860;48.066;14.124;2023-06-10T12:47:50;96303.16;;;27.57;51.39
49044;BME280;34860;48.066;14.124;2023-06-10T12:50:50;96305.06;;;27.54;51.51
49044;BME280;34860;48.066;14.124;2023-06-10T12:53:41;96306.22;;;27.59;51.42
49044;BME280;34860;48.066;14.124;2023-06-10T12:56:30;96302.63;;;27.66;51.34
49044;BME280;34860;48.066;14.124;2023-06-10T12:59:23;96299.06;;;27.73;50.99
49044;BME280;34860;48.066;14.124;2023-06-10T13:02:16;96304.97;;;27.76;50.81
49044;BME280;34860;48.066;14.124;2023-06-10T13:05:06;96295.81;;;27.69;50.96
49044;BME280;34860;48.066;14.124;2023-06-10T13:08:00;96301.47;;;27.62;51.07
49044;BME280;34860;48.066;14.124;2023-06-10T13:10:50;96303.13;;;27.49;51.45
49044;BME280;34860;48.066;14.124;2023-06-10T13:13:39;96304.97;;;27.39;51.56
49044;BME280;34860;48.066;14.124;2023-06-10T13:16:33;96314.00;;;27.30;51.64
49044;BME280;34860;48.066;14.124;2023-06-10T13:19:26;96306.56;;;27.27;51.54
49044;BME280;34860;48.066;14.124;2023-06-10T13:22:14;96300.53;;;27.30;51.28
49044;BME280;34860;48.066;14.124;2023-06-10T13:25:05;96299.41;;;27.33;51.43
49044;BME280;34860;48.066;14.124;2023-06-10T13:27:54;96300.72;;;27.32;51.54
49044;BME280;34860;48.066;14.124;2023-06-10T13:30:43;96300.38;;;27.36;51.10
49044;BME280;34860;48.066;14.124;2023-06-10T13:33:36;96296.41;;;27.39;51.15
49044;BME280;34860;48.066;14.124;2023-06-10T13:36:26;96312.41;;;27.42;51.06
49044;BME280;34860;48.066;14.124;2023-06-10T13:39:14;96316.56;;;27.41;51.17
49044;BME280;34860;48.066;14.124;2023-06-10T13:42:03;96315.97;;;27.35;51.04
49044;BME280;34860;48.066;14.124;2023-06-10T13:44:59;96314.72;;;27.23;51.38
49044;BME280;34860;48.066;14.124;2023-06-10T13:47:50;96327.75;;;27.10;51.02
49044;BME280;34860;48.066;14.124;2023-06-10T13:50:39;96329.16;;;26.96;51.42
49044;BME280;34860;48.066;14.124;2023-06-10T13:53:31;96324.75;;;26.74;51.41
49044;BME280;34860;48.066;14.124;2023-06-10T13:56:19;96332.94;;;26.56;51.75
49044;BME280;34860;48.066;14.124;2023-06-10T13:59:08;96342.44;;;26.38;51.94
49044;BME280;34860;48.066;14.124;2023-06-10T14:02:04;96334.59;;;26.17;51.82
49044;BME280;34860;48.066;14.124;2023-06-10T14:04:52;96332.66;;;25.99;52.34
49044;BME280;34860;48.066;14.124;2023-06-10T14:07:46;96330.72;;;25.80;52.38
49044;BME280;34860;48.066;14.124;2023-06-10T14:10:37;96335.19;;;25.62;52.48
49044;BME280;34860;48.066;14.124;2023-06-10T14:13:30;96340.22;;;25.43;52.14
49044;BME280;34860;48.066;14.124;2023-06-10T14:16:22;96346.75;;;25.24;52.54
49044;BME280;34860;48.066;14.124;2023-06-10T14:19:14;96345.75;;;25.08;52.49
49044;BME280;34860;48.066;14.124;2023-06-10T14:22:05;96339.59;;;24.91;52.58
49044;BME280;34860;48.066;14.124;2023-06-10T14:24:55;96331.56;;;24.76;52.71
49044;BME280;34860;48.066;14.124;2023-06-10T14:27:47;96333.34;;;24.60;52.51
49044;BME280;34860;48.066;14.124;2023-06-10T14:30:37;96341.81;;;24.46;52.58
49044;BME280;34860;48.066;14.124;2023-06-10T14:33:25;96337.59;;;24.34;52.70
49044;BME280;34860;48.066;14.124;2023-06-10T14:36:18;96338.28;;;24.21;52.81
49044;BME280;34860;48.066;14.124;2023-06-10T14:39:07;96334.31;;;24.11;52.62
49044;BME280;34860;48.066;14.124;2023-06-10T14:42:00;96323.88;;;24.00;52.40
49044;BME280;34860;48.066;14.124;2023-06-10T14:44:51;96324.25;;;23.91;52.84
49044;BME280;34860;48.066;14.124;2023-06-10T14:47:39;96326.66;;;23.81;52.82
49044;BME280;34860;48.066;14.124;2023-06-10T14:50:27;96327.81;;;23.72;52.77
49044;BME280;34860;48.066;14.124;2023-06-10T14:53:18;96321.97;;;23.65;52.76
49044;BME280;34860;48.066;14.124;2023-06-10T14:56:06;96331.63;;;23.56;52.95
49044;BME280;34860;48.066;14.124;2023-06-10T14:59:02;96333.00;;;23.49;52.89
49044;BME280;34860;48.066;14.124;2023-06-10T15:01:52;96328.44;;;23.40;53.01